createdAt,value
2018-09-27T00:00:56.314Z,102545.04
2018-09-27T00:03:24.660Z,102548.16
2018-09-27T00:05:54.278Z,102544.80
2018-09-27T00:08:22.650Z,102554.55
2018-09-27T00:10:51.044Z,102548.76
2018-09-27T00:13:19.368Z,102551.79
2018-09-27T00:15:47.696Z,102556.11
2018-09-27T00:18:16.008Z,102550.70
2018-09-27T00:20:44.342Z,102551.77
2018-09-27T00:23:12.678Z,102553.69
2018-09-27T00:25:41.575Z,102544.22
2018-09-27T00:28:10.017Z,102545.03
2018-09-27T00:30:38.536Z,102555.86
2018-09-27T00:33:06.847Z,102563.30
2018-09-27T00:35:35.191Z,102555.61
2018-09-27T00:38:03.520Z,102552.87
2018-09-27T00:40:31.967Z,102546.73
2018-09-27T00:43:00.324Z,102550.93
2018-09-27T00:45:28.637Z,102544.92
2018-09-27T00:47:56.955Z,102552.86
2018-09-27T00:50:25.274Z,102547.56
2018-09-27T00:52:53.592Z,102546.50
2018-09-27T00:55:22.108Z,102546.38
2018-09-27T00:57:50.436Z,102544.33
2018-09-27T01:00:18.748Z,102539.52
2018-09-27T01:02:47.091Z,102550.69
2018-09-27T01:05:15.408Z,102545.30
2018-09-27T01:07:43.718Z,102548.88
2018-09-27T01:10:12.064Z,102554.91
2018-09-27T01:12:40.375Z,102552.13
2018-09-27T01:15:08.709Z,102543.34
2018-09-27T01:17:37.140Z,102552.13
2018-09-27T01:20:05.492Z,102541.08
2018-09-27T01:22:33.808Z,102533.62
2018-09-27T01:25:02.156Z,102549.84
2018-09-27T01:27:30.504Z,102555.14
2018-09-27T01:29:58.832Z,102553.45
2018-09-27T01:32:27.217Z,102557.55
2018-09-27T01:34:55.524Z,102547.56
2018-09-27T01:37:23.964Z,102548.17
2018-09-27T01:39:52.736Z,102548.78
2018-09-27T01:42:21.072Z,102539.51
2018-09-27T01:44:49.390Z,102547.56
2018-09-27T01:47:17.830Z,102542.51
2018-09-27T01:49:46.165Z,102550.81
2018-09-27T01:52:14.504Z,102550.09
2018-09-27T01:54:42.877Z,102545.90
2018-09-27T01:57:11.207Z,102546.37
2018-09-27T01:59:39.544Z,102544.56
2018-09-27T02:02:08.002Z,102550.22
2018-09-27T02:04:36.335Z,102551.87
2018-09-27T02:07:04.884Z,102546.98
2018-09-27T02:09:33.192Z,102551.91
2018-09-27T02:12:01.518Z,102559.70
2018-09-27T02:14:29.956Z,102554.06
2018-09-27T02:16:58.267Z,102561.27
2018-09-27T02:19:26.588Z,102564.52
2018-09-27T02:21:54.962Z,102549.86
2018-09-27T02:24:23.272Z,102550.92
2018-09-27T02:26:51.623Z,102547.31
2018-09-27T02:29:19.980Z,102548.77
2018-09-27T02:31:48.306Z,102546.84
2018-09-27T02:34:16.631Z,102548.05
2018-09-27T02:36:44.980Z,102545.88
2018-09-27T02:39:13.415Z,102543.23
2018-09-27T02:41:41.821Z,102547.08
2018-09-27T02:44:10.181Z,102531.45
2018-09-27T02:46:38.518Z,102529.42
2018-09-27T02:49:06.830Z,102529.30
2018-09-27T02:51:35.193Z,102527.84
2018-09-27T02:54:03.573Z,102533.48
2018-09-27T02:56:31.892Z,102534.94
2018-09-27T02:59:00.264Z,102538.91
2018-09-27T03:01:28.580Z,102530.36
2018-09-27T03:03:56.884Z,102537.69
2018-09-27T03:06:25.236Z,102533.48
2018-09-27T03:08:53.564Z,102531.81
2018-09-27T03:11:21.884Z,102537.20
2018-09-27T03:13:50.283Z,102542.88
2018-09-27T03:16:18.603Z,102527.36
2018-09-27T03:18:46.932Z,102533.88
2018-09-27T03:21:15.284Z,102535.17
2018-09-27T03:23:43.596Z,102531.23
2018-09-27T03:26:11.916Z,102535.91
2018-09-27T03:28:40.472Z,102509.11
2018-09-27T03:31:08.856Z,102512.72
2018-09-27T03:33:37.192Z,102518.11
2018-09-27T03:36:05.559Z,102516.30
2018-09-27T03:38:33.893Z,102515.81
2018-09-27T03:41:02.260Z,102522.33
2018-09-27T03:43:30.616Z,102505.72
2018-09-27T03:45:58.944Z,102517.75
2018-09-27T03:48:27.270Z,102517.39
2018-09-27T03:50:55.670Z,102514.03
2018-09-27T03:53:23.995Z,102523.19
2018-09-27T03:55:52.321Z,102523.03
2018-09-27T03:58:20.681Z,102524.13
2018-09-27T04:00:49.021Z,102515.23
2018-09-27T04:03:17.398Z,102521.97
2018-09-27T04:05:45.728Z,102525.34
2018-09-27T04:08:14.069Z,102518.13
2018-09-27T04:10:42.372Z,102518.48
2018-09-27T04:13:10.717Z,102519.81
2018-09-27T04:15:39.034Z,102534.00
2018-09-27T04:18:07.360Z,102521.14
2018-09-27T04:20:49.952Z,102524.14
2018-09-27T04:23:19.444Z,102516.20
2018-09-27T04:25:47.773Z,102524.24
2018-09-27T04:28:16.137Z,102542.76
2018-09-27T04:30:44.462Z,102531.08
2018-09-27T04:33:12.785Z,102528.94
2018-09-27T04:35:41.140Z,102531.22
2018-09-27T04:38:09.486Z,102528.33
2018-09-27T04:40:37.808Z,102525.36
2018-09-27T04:43:06.424Z,102522.22
2018-09-27T04:45:34.748Z,102533.40
2018-09-27T04:48:03.113Z,102530.76
2018-09-27T04:50:31.473Z,102525.47
2018-09-27T04:52:59.808Z,102527.50
2018-09-27T04:55:28.137Z,102528.69
2018-09-27T04:57:56.497Z,102530.15
2018-09-27T05:00:24.820Z,102525.34
2018-09-27T05:02:53.152Z,102531.83
2018-09-27T05:05:21.525Z,102529.92
2018-09-27T05:07:49.852Z,102527.02
2018-09-27T05:10:18.184Z,102525.59
2018-09-27T05:12:46.582Z,102522.95
2018-09-27T05:15:14.913Z,102526.30
2018-09-27T05:17:43.235Z,102524.73
2018-09-27T05:20:11.597Z,102527.73
2018-09-27T05:22:39.933Z,102529.41
2018-09-27T05:25:08.272Z,102530.28
2018-09-27T05:27:36.946Z,102526.91
2018-09-27T05:30:05.256Z,102517.05
2018-09-27T05:32:33.577Z,102512.86
2018-09-27T05:35:02.051Z,102513.46
2018-09-27T05:37:30.377Z,102508.75
2018-09-27T05:39:58.697Z,102508.98
2018-09-27T05:42:27.052Z,102515.97
2018-09-27T05:44:55.540Z,102512.24
2018-09-27T05:47:23.861Z,102522.33
2018-09-27T05:49:52.241Z,102537.59
2018-09-27T05:52:20.796Z,102533.05
2018-09-27T05:54:49.111Z,102528.47
2018-09-27T05:57:17.474Z,102527.75
2018-09-27T05:59:45.780Z,102534.70
2018-09-27T06:02:14.132Z,102528.21
2018-09-27T06:04:42.725Z,102525.58
2018-09-27T06:07:11.048Z,102534.12
2018-09-27T06:09:39.463Z,102533.27
2018-09-27T06:12:07.862Z,102535.66
2018-09-27T06:14:36.184Z,102542.77
2018-09-27T06:17:04.629Z,102544.55
2018-09-27T06:19:33.147Z,102527.72
2018-09-27T06:22:01.480Z,102518.23
2018-09-27T06:24:29.812Z,102531.23
2018-09-27T06:26:58.181Z,102520.16
2018-09-27T06:29:26.523Z,102518.72
2018-09-27T06:31:54.840Z,102523.04
2018-09-27T06:34:23.209Z,102518.33
2018-09-27T06:36:51.529Z,102512.52
2018-09-27T06:39:19.861Z,102520.06
2018-09-27T06:41:48.249Z,102518.13
2018-09-27T06:44:16.692Z,102518.13
2018-09-27T06:46:45.097Z,102521.20
2018-09-27T06:49:13.457Z,102516.59
2018-09-27T06:51:41.796Z,102516.94
2018-09-27T06:54:10.129Z,102530.02
2018-09-27T06:56:38.564Z,102527.61
2018-09-27T06:59:06.853Z,102522.93
2018-09-27T07:01:35.298Z,102521.13
2018-09-27T07:04:03.657Z,102522.73
2018-09-27T07:06:31.985Z,102520.69
2018-09-27T07:09:00.304Z,102532.95
2018-09-27T07:11:28.688Z,102526.95
2018-09-27T07:13:57.005Z,102516.88
2018-09-27T07:16:25.354Z,102527.99
2018-09-27T07:18:53.688Z,102524.20
2018-09-27T07:21:22.011Z,102523.95
2018-09-27T07:23:50.779Z,102525.14
2018-09-27T07:26:19.157Z,102516.25
2018-09-27T07:28:47.509Z,102519.16
2018-09-27T07:31:15.887Z,102524.52
2018-09-27T07:33:44.280Z,102520.05
2018-09-27T07:36:12.632Z,102508.67
2018-09-27T07:38:41.059Z,102512.25
2018-09-27T07:41:09.361Z,102512.95
2018-09-27T07:43:37.694Z,102506.06
2018-09-27T07:46:06.033Z,102506.95
2018-09-27T07:48:34.818Z,102509.36
2018-09-27T07:51:03.140Z,102502.98
2018-09-27T07:53:31.504Z,102506.06
2018-09-27T07:56:00.054Z,102504.53
2018-09-27T07:58:28.394Z,102513.18
2018-09-27T08:00:56.724Z,102514.52
2018-09-27T08:03:25.096Z,102515.41
2018-09-27T08:05:53.425Z,102521.76
2018-09-27T08:08:21.752Z,102514.58
2018-09-27T08:10:50.138Z,102527.84
2018-09-27T08:13:18.790Z,102519.14
2018-09-27T08:15:47.110Z,102517.89
2018-09-27T08:18:15.484Z,102525.03
2018-09-27T08:20:43.947Z,102530.72
2018-09-27T08:23:12.165Z,102529.89
2018-09-27T08:25:40.544Z,102525.03
2018-09-27T08:28:08.876Z,102529.47
2018-09-27T08:30:37.283Z,102526.36
2018-09-27T08:33:05.592Z,102529.70
2018-09-27T08:35:33.916Z,102536.74
2018-09-27T08:38:02.240Z,102522.42
2018-09-27T08:40:30.608Z,102530.84
2018-09-27T08:42:58.939Z,102528.09
2018-09-27T08:45:27.638Z,102528.31
2018-09-27T08:47:55.657Z,102536.03
2018-09-27T08:50:24.117Z,102532.05
2018-09-27T08:52:52.454Z,102520.59
2018-09-27T08:55:21.088Z,102518.66
2018-09-27T08:57:49.456Z,102526.30
2018-09-27T09:00:17.796Z,102520.63
2018-09-27T09:02:46.746Z,102516.55
2018-09-27T09:05:15.093Z,102507.60
2018-09-27T09:07:43.507Z,102508.45
2018-09-27T09:10:12.644Z,102513.30
2018-09-27T09:12:40.986Z,102511.17
2018-09-27T09:15:09.328Z,102508.31
2018-09-27T09:17:37.718Z,102500.17
2018-09-27T09:20:06.829Z,102502.08
2018-09-27T09:22:35.157Z,102493.42
2018-09-27T09:25:03.636Z,102490.02
2018-09-27T09:27:32.161Z,102484.22
2018-09-27T09:30:00.547Z,102489.03
2018-09-27T09:32:29.053Z,102479.20
2018-09-27T09:34:57.382Z,102474.61
2018-09-27T09:37:25.720Z,102475.22
2018-09-27T09:39:54.269Z,102469.70
2018-09-27T09:42:22.609Z,102481.16
2018-09-27T09:44:50.945Z,102468.48
2018-09-27T09:47:19.437Z,102467.67
2018-09-27T09:49:47.769Z,102453.55
2018-09-27T09:52:16.169Z,102460.84
2018-09-27T09:54:44.548Z,102456.66
2018-09-27T09:57:12.900Z,102452.85
2018-09-27T09:59:41.228Z,102450.81
2018-09-27T10:02:09.581Z,102461.93
2018-09-27T10:04:37.908Z,102453.00
2018-09-27T10:07:06.376Z,102447.44
2018-09-27T10:09:34.757Z,102451.07
2018-09-27T10:12:03.112Z,102447.83
2018-09-27T10:14:31.660Z,102441.16
2018-09-27T10:17:00.037Z,102442.96
2018-09-27T10:19:28.481Z,102435.64
2018-09-27T10:21:57.047Z,102430.19
2018-09-27T10:24:25.389Z,102425.66
2018-09-27T10:26:53.760Z,102419.72
2018-09-27T10:29:22.340Z,102423.45
2018-09-27T10:31:50.742Z,102413.08
2018-09-27T10:34:19.158Z,102410.83
2018-09-27T10:36:47.759Z,102400.73
2018-09-27T10:39:16.081Z,102400.86
2018-09-27T10:41:44.441Z,102393.81
2018-09-27T10:44:13.068Z,102392.77
2018-09-27T10:46:41.413Z,102399.29
2018-09-27T10:49:10.653Z,102386.83
2018-09-27T10:51:39.010Z,102388.30
2018-09-27T10:54:07.893Z,102386.14
2018-09-27T10:56:36.512Z,102377.74
2018-09-27T10:59:04.849Z,102371.67
2018-09-27T11:01:33.755Z,102385.75
2018-09-27T11:04:02.376Z,102369.84
2018-09-27T11:06:30.700Z,102377.12
2018-09-27T11:08:59.057Z,102369.45
2018-09-27T11:11:27.713Z,102344.52
2018-09-27T11:13:56.092Z,102358.13
2018-09-27T11:16:24.612Z,102376.22
2018-09-27T11:18:53.053Z,102333.70
2018-09-27T11:21:21.426Z,102335.73
2018-09-27T11:23:49.815Z,102329.06
2018-09-27T11:26:18.591Z,102354.62
2018-09-27T11:28:52.303Z,102350.87
2018-09-27T11:31:26.598Z,102340.20
2018-09-27T11:33:54.950Z,102332.83
2018-09-27T11:36:23.545Z,102335.88
2018-09-27T11:38:51.885Z,102336.62
2018-09-27T11:41:20.221Z,102323.19
2018-09-27T11:43:48.582Z,102317.63
2018-09-27T11:46:16.929Z,102316.85
2018-09-27T11:48:45.420Z,102307.34
2018-09-27T11:51:13.745Z,102310.54
2018-09-27T11:53:42.084Z,102338.27
2018-09-27T11:56:10.465Z,102298.33
2018-09-27T11:58:38.784Z,102301.14
2018-09-27T12:01:07.196Z,102309.06
2018-09-27T12:03:35.711Z,102287.02
2018-09-27T12:06:04.028Z,102295.40
2018-09-27T12:08:32.353Z,102287.32
2018-09-27T12:11:00.826Z,102282.78
2018-09-27T12:13:29.347Z,102288.39
2018-09-27T12:15:57.592Z,102295.48
2018-09-27T12:18:25.936Z,102281.53
2018-09-27T12:20:54.256Z,102271.30
2018-09-27T12:23:24.214Z,102282.65
2018-09-27T12:25:52.659Z,102286.14
2018-09-27T12:28:21.544Z,102278.03
2018-09-27T12:30:49.966Z,102289.31
2018-09-27T12:33:18.335Z,102260.81
2018-09-27T12:35:46.672Z,102278.27
2018-09-27T12:38:15.056Z,102266.88
2018-09-27T12:40:43.452Z,102269.50
2018-09-27T12:43:11.754Z,102268.21
2018-09-27T12:45:40.240Z,102264.97
2018-09-27T12:48:08.545Z,102253.91
2018-09-27T12:50:37.560Z,102263.20
2018-09-27T12:53:06.058Z,102258.28
2018-09-27T12:55:35.190Z,102266.47
2018-09-27T12:58:03.556Z,102258.34
2018-09-27T13:00:32.230Z,102247.58
2018-09-27T13:03:00.760Z,102248.16
2018-09-27T13:05:28.965Z,102248.97
2018-09-27T13:07:57.457Z,102246.70
2018-09-27T13:10:26.118Z,102244.31
2018-09-27T13:12:54.559Z,102247.05
2018-09-27T13:15:23.002Z,102233.44
2018-09-27T13:17:51.355Z,102231.25
2018-09-27T13:20:19.758Z,102234.36
2018-09-27T13:22:48.225Z,102232.11
2018-09-27T13:25:16.590Z,102227.92
2018-09-27T13:27:44.953Z,102219.84
2018-09-27T13:30:13.398Z,102228.45
2018-09-27T13:32:41.724Z,102202.20
2018-09-27T13:35:10.081Z,102200.73
2018-09-27T13:37:38.613Z,102204.09
2018-09-27T13:40:07.045Z,102198.31
2018-09-27T13:42:35.337Z,102192.43
2018-09-27T13:45:03.842Z,102190.70
2018-09-27T13:47:32.117Z,102197.50
2018-09-27T13:50:00.448Z,102192.25
2018-09-27T13:52:29.003Z,102198.02
2018-09-27T13:54:57.367Z,102180.33
2018-09-27T13:57:26.027Z,102169.92
2018-09-27T13:59:54.348Z,102182.36
2018-09-27T14:02:22.685Z,102175.80
2018-09-27T14:04:51.118Z,102179.50
2018-09-27T14:07:19.412Z,102172.86
2018-09-27T14:09:47.936Z,102179.16
2018-09-27T14:12:16.288Z,102173.30
2018-09-27T14:14:44.687Z,102166.33
2018-09-27T14:17:12.996Z,102162.37
2018-09-27T14:19:41.349Z,102161.22
2018-09-27T14:22:09.710Z,102178.37
2018-09-27T14:24:38.070Z,102145.33
2018-09-27T14:27:06.813Z,102151.73
2018-09-27T14:29:35.269Z,102151.39
2018-09-27T14:32:03.606Z,102141.14
2018-09-27T14:34:31.936Z,102138.12
2018-09-27T14:37:00.301Z,102137.91
2018-09-27T14:39:28.637Z,102138.22
2018-09-27T14:41:56.981Z,102138.45
2018-09-27T14:44:25.337Z,102133.77
2018-09-27T14:46:53.976Z,102129.11
2018-09-27T14:49:22.344Z,102116.14
2018-09-27T14:51:50.696Z,102122.04
2018-09-27T14:54:19.115Z,102116.59
2018-09-27T14:56:47.441Z,102110.91
2018-09-27T14:59:15.922Z,102093.81
2018-09-27T15:01:44.279Z,102095.11
2018-09-27T15:04:12.628Z,102083.48
2018-09-27T15:06:41.238Z,102087.95
2018-09-27T15:09:10.866Z,102092.36
2018-09-27T15:11:39.192Z,102083.63
2018-09-27T15:14:07.924Z,102085.95
2018-09-27T15:16:36.776Z,102083.73
2018-09-27T15:19:05.466Z,102086.05
2018-09-27T15:21:33.821Z,102082.62
2018-09-27T15:24:02.605Z,102079.42
2018-09-27T15:26:31.104Z,102080.33
2018-09-27T15:28:59.441Z,102081.34
2018-09-27T15:31:27.953Z,102077.09
2018-09-27T15:33:56.353Z,102066.03
2018-09-27T15:36:24.753Z,102069.89
2018-09-27T15:38:53.416Z,102071.78
2018-09-27T15:41:21.785Z,102069.88
2018-09-27T15:43:50.353Z,102060.48
2018-09-27T15:46:18.717Z,102052.67
2018-09-27T15:48:47.052Z,102054.88
2018-09-27T15:51:15.428Z,102055.52
2018-09-27T15:53:43.773Z,102054.26
2018-09-27T15:56:12.126Z,102056.08
2018-09-27T15:58:40.637Z,102047.63
2018-09-27T16:01:08.957Z,102045.62
2018-09-27T16:03:37.301Z,102044.48
2018-09-27T16:06:05.772Z,102042.20
2018-09-27T16:08:34.141Z,102048.03
2018-09-27T16:11:02.541Z,102041.83
2018-09-27T16:13:30.931Z,102047.75
2018-09-27T16:15:59.302Z,102033.77
2018-09-27T16:18:34.277Z,102027.72
2018-09-27T16:21:02.633Z,102032.32
2018-09-27T16:23:31.063Z,102021.58
2018-09-27T16:25:59.348Z,102027.51
2018-09-27T16:28:29.673Z,102024.14
2018-09-27T16:30:58.049Z,102016.93
2018-09-27T16:33:26.420Z,102018.66
2018-09-27T16:35:56.971Z,102021.31
2018-09-27T16:38:25.344Z,102019.21
2018-09-27T16:40:54.761Z,102012.70
2018-09-27T16:43:23.116Z,102011.44
2018-09-27T16:45:51.472Z,102019.73
2018-09-27T16:48:19.833Z,102002.23
2018-09-27T16:50:48.209Z,102001.72
2018-09-27T16:53:16.564Z,102005.55
2018-09-27T16:55:44.928Z,102000.55
2018-09-27T16:58:14.386Z,101997.19
2018-09-27T17:00:42.742Z,101994.25
2018-09-27T17:03:11.137Z,101980.98
2018-09-27T17:05:39.553Z,101987.31
2018-09-27T17:08:07.942Z,101977.38
2018-09-27T17:10:36.289Z,101979.60
2018-09-27T17:13:04.680Z,101980.98
2018-09-27T17:15:33.012Z,101976.30
2018-09-27T17:18:01.354Z,101969.47
2018-09-27T17:20:29.755Z,101962.58
2018-09-27T17:22:58.121Z,101967.32
2018-09-27T17:25:26.658Z,101965.41
2018-09-27T17:27:55.016Z,101961.77
2018-09-27T17:30:23.408Z,101957.39
2018-09-27T17:32:51.874Z,101945.92
2018-09-27T17:35:20.274Z,101949.17
2018-09-27T17:37:48.701Z,101950.66
2018-09-27T17:40:17.109Z,101951.59
2018-09-27T17:42:45.425Z,101947.81
2018-09-27T17:45:13.789Z,101944.88
2018-09-27T17:47:42.142Z,101937.09
2018-09-27T17:50:10.504Z,101944.20
2018-09-27T17:52:38.875Z,101935.51
2018-09-27T17:55:07.273Z,101947.03
2018-09-27T17:57:35.621Z,101930.91
2018-09-27T18:00:04.008Z,101936.16
2018-09-27T18:02:32.461Z,101930.85
2018-09-27T18:05:00.901Z,101927.38
2018-09-27T18:07:29.257Z,101927.44
2018-09-27T18:09:58.068Z,101930.45
2018-09-27T18:12:26.413Z,101927.11
2018-09-27T18:14:54.856Z,101941.56
2018-09-27T18:17:23.177Z,101922.55
2018-09-27T18:19:51.563Z,101921.30
2018-09-27T18:22:19.919Z,101926.48
2018-09-27T18:24:48.293Z,101911.45
2018-09-27T18:27:16.667Z,101912.94
2018-09-27T18:29:45.056Z,101916.19
2018-09-27T18:32:13.391Z,101906.32
2018-09-27T18:34:41.787Z,101902.41
2018-09-27T18:37:10.223Z,101905.16
2018-09-27T18:39:38.621Z,101901.20
2018-09-27T18:42:07.068Z,101905.64
2018-09-27T18:44:35.453Z,101909.05
2018-09-27T18:47:04.029Z,101904.48
2018-09-27T18:49:32.391Z,101903.06
2018-09-27T18:52:00.797Z,101914.60
2018-09-27T18:54:29.149Z,101890.09
2018-09-27T18:56:57.504Z,101889.66
2018-09-27T18:59:25.860Z,101892.96
2018-09-27T19:01:54.557Z,101870.70
2018-09-27T19:04:22.948Z,101883.34
2018-09-27T19:06:51.312Z,101865.55
2018-09-27T19:09:21.758Z,101861.73
2018-09-27T19:11:50.105Z,101855.08
2018-09-27T19:14:18.872Z,101862.88
2018-09-27T19:16:47.273Z,101862.72
2018-09-27T19:19:15.584Z,101869.34
2018-09-27T19:21:43.924Z,101861.58
2018-09-27T19:24:12.280Z,101864.14
2018-09-27T19:26:40.637Z,101854.34
2018-09-27T19:29:08.989Z,101850.21
2018-09-27T19:31:37.333Z,101861.95
2018-09-27T19:34:05.874Z,101849.04
2018-09-27T19:36:34.254Z,101841.43
2018-09-27T19:39:02.832Z,101845.09
2018-09-27T19:41:31.117Z,101842.75
2018-09-27T19:43:59.480Z,101829.19
2018-09-27T19:46:27.890Z,101839.61
2018-09-27T19:48:56.308Z,101828.91
2018-09-27T19:51:24.659Z,101843.18
2018-09-27T19:53:53.077Z,101833.91
2018-09-27T19:56:21.471Z,101845.96
2018-09-27T19:58:50.133Z,101845.90
2018-09-27T20:01:18.511Z,101847.47
2018-09-27T20:03:46.890Z,101841.64
2018-09-27T20:06:15.255Z,101832.38
2018-09-27T20:08:43.802Z,101844.75
2018-09-27T20:11:12.154Z,101839.23
2018-09-27T20:13:40.525Z,101849.46
2018-09-27T20:16:08.996Z,101833.41
2018-09-27T20:18:37.360Z,101836.05
2018-09-27T20:21:05.706Z,101829.41
2018-09-27T20:23:34.077Z,101823.73
2018-09-27T20:26:02.415Z,101820.78
2018-09-27T20:28:30.827Z,101822.07
2018-09-27T20:30:59.112Z,101817.34
2018-09-27T20:33:27.483Z,101822.64
2018-09-27T20:35:58.964Z,101814.06
2018-09-27T20:38:27.343Z,101817.98
2018-09-27T20:40:55.681Z,101813.33
2018-09-27T20:43:24.173Z,101809.85
2018-09-27T20:45:52.496Z,101814.23
2018-09-27T20:48:20.920Z,101813.67
2018-09-27T20:50:49.260Z,101824.61
2018-09-27T20:53:17.616Z,101819.12
2018-09-27T20:55:45.970Z,101821.84
2018-09-27T20:58:14.312Z,101823.28
2018-09-27T21:00:42.631Z,101820.56
2018-09-27T21:03:10.982Z,101829.19
2018-09-27T21:05:39.264Z,101822.72
2018-09-27T21:08:07.734Z,101826.20
2018-09-27T21:10:36.052Z,101823.36
2018-09-27T21:13:04.368Z,101822.91
2018-09-27T21:15:32.663Z,101813.34
2018-09-27T21:18:00.997Z,101827.56
2018-09-27T21:20:29.316Z,101821.09
2018-09-27T21:22:57.650Z,101826.91
2018-09-27T21:25:26.055Z,101824.53
2018-09-27T21:27:54.376Z,101861.03
2018-09-27T21:30:22.684Z,101850.61
2018-09-27T21:32:51.000Z,101860.13
2018-09-27T21:35:19.307Z,101854.74
2018-09-27T21:37:47.664Z,101855.14
2018-09-27T21:40:15.969Z,101855.32
2018-09-27T21:42:44.292Z,101861.77
2018-09-27T21:45:12.613Z,101862.72
2018-09-27T21:47:41.594Z,101867.80
2018-09-27T21:50:10.002Z,101862.17
2018-09-27T21:52:38.315Z,101861.90
2018-09-27T21:55:06.692Z,101864.02
2018-09-27T21:57:35.049Z,101863.84
2018-09-27T22:00:03.445Z,101862.04
2018-09-27T22:02:31.753Z,101867.45
2018-09-27T22:05:00.098Z,101872.22
2018-09-27T22:07:28.405Z,101881.36
2018-09-27T22:09:57.972Z,101879.69
2018-09-27T22:12:26.533Z,101873.08
2018-09-27T22:14:55.236Z,101873.36
2018-09-27T22:17:23.548Z,101872.62
2018-09-27T22:19:52.221Z,101877.83
2018-09-27T22:22:20.554Z,101878.34
2018-09-27T22:24:48.929Z,101875.27
2018-09-27T22:27:17.275Z,101874.68
2018-09-27T22:29:45.650Z,101872.91
2018-09-27T22:32:14.030Z,101865.68
2018-09-27T22:34:42.397Z,101872.91
2018-09-27T22:37:10.834Z,101874.05
2018-09-27T22:39:39.236Z,101872.59
2018-09-27T22:42:07.601Z,101873.08
2018-09-27T22:44:35.987Z,101872.45
2018-09-27T22:47:04.422Z,101878.27
2018-09-27T22:49:32.889Z,101875.20
2018-09-27T22:52:01.299Z,101879.06
2018-09-27T22:54:29.805Z,101879.98
2018-09-27T22:56:58.125Z,101878.36
2018-09-27T22:59:26.502Z,101872.09
2018-09-27T23:01:54.869Z,101868.46
2018-09-27T23:04:23.254Z,101875.09
2018-09-27T23:06:51.601Z,101883.64
2018-09-27T23:09:20.013Z,101880.36
2018-09-27T23:11:48.382Z,101879.94
2018-09-27T23:14:16.765Z,101886.91
2018-09-27T23:16:45.121Z,101888.37
2018-09-27T23:19:13.546Z,101891.86
2018-09-27T23:21:41.902Z,101893.64
2018-09-27T23:24:10.387Z,101898.20
2018-09-27T23:26:38.730Z,101905.84
2018-09-27T23:29:07.362Z,101898.95
2018-09-27T23:31:35.715Z,101906.18
2018-09-27T23:34:04.448Z,101908.63
2018-09-27T23:37:58.410Z,101907.84
2018-09-27T23:40:26.762Z,101909.51
2018-09-27T23:42:55.715Z,101912.93
2018-09-27T23:45:24.334Z,101906.81
2018-09-27T23:47:52.727Z,101908.51
2018-09-27T23:50:21.115Z,101917.66
2018-09-27T23:52:49.516Z,101919.16
2018-09-27T23:55:17.897Z,101930.62
2018-09-27T23:57:46.273Z,101931.01
